createdAt,value
2018-04-22T00:00:10.331Z,54.26
2018-04-22T00:01:13.481Z,54.28
2018-04-22T00:02:16.550Z,54.25
2018-04-22T00:03:20.130Z,54.27
2018-04-22T00:04:23.232Z,54.29
2018-04-22T00:05:26.694Z,54.33
2018-04-22T00:06:29.724Z,54.38
2018-04-22T00:07:32.823Z,54.45
2018-04-22T00:08:35.879Z,54.49
2018-04-22T00:09:38.952Z,54.50
2018-04-22T00:10:42.143Z,54.55
2018-04-22T00:11:45.242Z,54.58
2018-04-22T00:12:48.614Z,54.59
2018-04-22T00:13:51.807Z,54.62
2018-04-22T00:14:55.291Z,54.66
2018-04-22T00:15:58.435Z,54.69
2018-04-22T00:17:01.567Z,54.72
2018-04-22T00:18:04.833Z,54.75
2018-04-22T00:19:07.921Z,54.73
2018-04-22T00:20:11.271Z,54.75
2018-04-22T00:21:14.447Z,54.77
2018-04-22T00:22:17.533Z,54.81
2018-04-22T00:23:20.578Z,54.84
2018-04-22T00:24:23.618Z,54.89
2018-04-22T00:25:26.691Z,54.91
2018-04-22T00:26:29.764Z,54.95
2018-04-22T00:27:32.817Z,55.01
2018-04-22T00:28:36.140Z,55.05
2018-04-22T00:29:39.394Z,55.11
2018-04-22T00:30:42.450Z,55.19
2018-04-22T00:31:45.535Z,55.23
2018-04-22T00:32:48.994Z,55.26
2018-04-22T00:33:52.045Z,55.34
2018-04-22T00:34:55.582Z,55.37
2018-04-22T00:35:58.654Z,55.39
2018-04-22T00:37:01.743Z,55.41
2018-04-22T00:38:04.914Z,55.46
2018-04-22T00:39:07.947Z,55.51
2018-04-22T00:40:11.034Z,55.55
2018-04-22T00:41:14.445Z,55.58
2018-04-22T00:42:17.520Z,55.57
2018-04-22T00:43:20.535Z,55.55
2018-04-22T00:44:23.606Z,55.54
2018-04-22T00:45:26.796Z,55.48
2018-04-22T00:46:29.887Z,55.40
2018-04-22T00:47:33.255Z,55.35
2018-04-22T00:48:36.742Z,55.30
2018-04-22T00:49:39.833Z,55.25
2018-04-22T00:50:42.947Z,55.20
2018-04-22T00:51:46.018Z,55.15
2018-04-22T00:52:49.122Z,55.10
2018-04-22T00:55:32.081Z,55.24
2018-04-22T00:56:35.142Z,55.25
2018-04-22T00:57:38.721Z,55.23
2018-04-22T00:58:41.769Z,55.25
2018-04-22T00:59:44.825Z,55.28
2018-04-22T01:00:47.899Z,55.29
2018-04-22T01:01:51.226Z,55.42
2018-04-22T01:02:54.450Z,55.47
2018-04-22T01:03:57.553Z,55.48
2018-04-22T01:05:01.019Z,55.53
2018-04-22T01:06:04.078Z,55.53
2018-04-22T01:07:07.133Z,55.62
2018-04-22T01:08:10.234Z,55.64
2018-04-22T01:09:13.387Z,55.69
2018-04-22T01:10:16.450Z,55.68
2018-04-22T01:11:19.563Z,55.70
2018-04-22T01:12:22.642Z,55.68
2018-04-22T01:13:25.704Z,55.65
2018-04-22T01:14:28.931Z,55.64
2018-04-22T01:15:32.059Z,55.66
2018-04-22T01:16:35.347Z,55.68
2018-04-22T01:17:38.603Z,55.74
2018-04-22T01:18:41.922Z,55.75
2018-04-22T01:19:45.149Z,55.74
2018-04-22T01:20:48.420Z,55.72
2018-04-22T01:21:51.459Z,55.70
2018-04-22T01:22:54.546Z,55.70
2018-04-22T01:23:57.600Z,55.70
2018-04-22T01:25:00.712Z,55.79
2018-04-22T01:26:03.762Z,55.79
2018-04-22T01:27:06.920Z,55.79
2018-04-22T01:28:10.003Z,55.76
2018-04-22T01:29:13.213Z,55.75
2018-04-22T01:30:16.318Z,55.75
2018-04-22T01:31:19.742Z,55.73
2018-04-22T01:32:22.790Z,55.72
2018-04-22T01:33:25.936Z,55.75
2018-04-22T01:34:29.002Z,55.77
2018-04-22T01:35:32.055Z,55.80
2018-04-22T01:36:35.094Z,55.84
2018-04-22T01:37:38.175Z,55.91
2018-04-22T01:38:41.239Z,55.96
2018-04-22T01:39:44.291Z,56.03
2018-04-22T01:40:47.419Z,56.11
2018-04-22T01:41:50.501Z,56.14
2018-04-22T01:42:53.547Z,56.17
2018-04-22T01:43:56.586Z,56.23
2018-04-22T01:44:59.681Z,56.29
2018-04-22T01:46:02.731Z,56.36
2018-04-22T01:47:05.806Z,56.35
2018-04-22T01:48:08.906Z,56.38
2018-04-22T01:49:12.287Z,56.44
2018-04-22T01:50:15.667Z,56.48
2018-04-22T01:51:18.795Z,56.49
2018-04-22T01:52:21.885Z,56.49
2018-04-22T01:53:25.007Z,56.51
2018-04-22T01:54:28.100Z,56.54
2018-04-22T01:55:31.159Z,56.58
2018-04-22T01:56:34.219Z,56.64
2018-04-22T01:57:37.458Z,56.70
2018-04-22T01:58:40.759Z,56.76
2018-04-22T01:59:43.819Z,56.82
2018-04-22T02:00:47.073Z,56.88
2018-04-22T02:01:50.219Z,56.94
2018-04-22T02:02:53.311Z,56.96
2018-04-22T02:03:56.384Z,56.97
2018-04-22T02:04:59.469Z,57.01
2018-04-22T02:06:02.568Z,57.05
2018-04-22T02:07:05.634Z,57.10
2018-04-22T02:08:08.801Z,57.11
2018-04-22T02:09:11.899Z,57.09
2018-04-22T02:10:14.956Z,57.15
2018-04-22T02:11:17.993Z,57.18
2018-04-22T02:12:21.194Z,57.19
2018-04-22T02:13:24.334Z,57.19
2018-04-22T02:14:27.438Z,57.20
2018-04-22T02:15:30.475Z,57.19
2018-04-22T02:16:33.929Z,57.19
2018-04-22T02:17:37.584Z,57.21
2018-04-22T02:18:40.709Z,57.20
2018-04-22T02:19:43.836Z,57.22
2018-04-22T02:20:46.894Z,57.25
2018-04-22T02:21:49.932Z,57.27
2018-04-22T02:22:53.323Z,57.29
2018-04-22T02:23:56.381Z,57.30
2018-04-22T02:24:59.493Z,57.32
2018-04-22T02:26:02.556Z,57.33
2018-04-22T02:27:05.679Z,57.37
2018-04-22T02:28:08.747Z,57.42
2018-04-22T02:29:12.001Z,57.43
2018-04-22T02:30:15.095Z,57.44
2018-04-22T02:31:18.179Z,57.51
2018-04-22T02:32:21.443Z,57.57
2018-04-22T02:33:24.523Z,57.63
2018-04-22T02:34:27.667Z,57.56
2018-04-22T02:35:30.767Z,57.50
2018-04-22T02:36:33.871Z,57.46
2018-04-22T02:37:36.988Z,57.43
2018-04-22T02:38:40.129Z,57.41
2018-04-22T02:39:43.560Z,57.39
2018-04-22T02:40:46.938Z,57.38
2018-04-22T02:41:49.981Z,57.38
2018-04-22T02:42:53.037Z,57.41
2018-04-22T02:43:56.124Z,57.45
2018-04-22T02:44:59.227Z,57.49
2018-04-22T02:46:02.287Z,57.54
2018-04-22T02:47:05.384Z,57.59
2018-04-22T02:48:08.439Z,57.64
2018-04-22T02:49:11.507Z,57.73
2018-04-22T02:50:14.565Z,57.76
2018-04-22T02:51:18.465Z,57.82
2018-04-22T02:52:21.629Z,57.89
2018-04-22T02:53:24.714Z,57.95
2018-04-22T02:54:27.787Z,58.01
2018-04-22T02:55:30.882Z,58.07
2018-04-22T02:56:33.962Z,58.14
2018-04-22T02:57:37.047Z,58.23
2018-04-22T02:58:40.124Z,58.31
2018-04-22T02:59:43.220Z,58.34
2018-04-22T03:00:46.265Z,58.41
2018-04-22T03:01:49.437Z,58.45
2018-04-22T03:02:52.559Z,58.48
2018-04-22T03:03:55.667Z,58.55
2018-04-22T03:04:58.820Z,58.60
2018-04-22T03:06:01.875Z,58.66
2018-04-22T03:07:05.006Z,58.69
2018-04-22T03:08:08.083Z,58.73
2018-04-22T03:09:11.209Z,58.75
2018-04-22T03:10:14.329Z,58.81
2018-04-22T03:11:17.414Z,58.86
2018-04-22T03:12:20.504Z,58.89
2018-04-22T03:13:23.640Z,58.94
2018-04-22T03:14:26.683Z,58.95
2018-04-22T03:15:29.755Z,58.99
2018-04-22T03:16:32.796Z,59.02
2018-04-22T03:17:36.049Z,59.04
2018-04-22T03:18:39.092Z,59.07
2018-04-22T03:19:42.192Z,59.07
2018-04-22T03:20:45.356Z,59.07
2018-04-22T03:21:48.422Z,59.11
2018-04-22T03:22:51.509Z,59.11
2018-04-22T03:23:54.585Z,59.07
2018-04-22T03:24:57.623Z,59.06
2018-04-22T03:26:00.816Z,59.05
2018-04-22T03:27:04.253Z,59.08
2018-04-22T03:28:07.625Z,59.11
2018-04-22T03:29:10.963Z,59.17
2018-04-22T03:30:14.027Z,59.19
2018-04-22T03:31:17.156Z,59.21
2018-04-22T03:32:20.230Z,59.25
2018-04-22T03:33:24.495Z,59.28
2018-04-22T03:34:27.895Z,59.31
2018-04-22T03:35:31.159Z,59.26
2018-04-22T03:36:34.266Z,59.28
2018-04-22T03:37:37.663Z,59.28
2018-04-22T03:38:40.742Z,59.27
2018-04-22T03:39:44.003Z,59.31
2018-04-22T03:40:47.023Z,59.33
2018-04-22T03:41:50.146Z,59.34
2018-04-22T03:42:53.227Z,59.37
2018-04-22T03:43:56.296Z,59.32
2018-04-22T03:44:59.382Z,59.34
2018-04-22T03:46:02.416Z,59.33
2018-04-22T03:47:05.557Z,59.34
2018-04-22T03:48:08.856Z,59.36
2018-04-22T03:49:11.994Z,59.39
2018-04-22T03:50:15.132Z,59.37
2018-04-22T03:51:18.250Z,59.38
2018-04-22T03:52:21.338Z,59.40
2018-04-22T03:53:24.674Z,59.37
2018-04-22T03:54:27.726Z,59.35
2018-04-22T03:55:30.804Z,59.33
2018-04-22T03:56:33.883Z,59.28
2018-04-22T03:57:36.978Z,59.27
2018-04-22T03:58:40.093Z,59.25
2018-04-22T03:59:43.125Z,59.23
2018-04-22T04:00:46.243Z,59.22
2018-04-22T04:01:49.350Z,59.19
2018-04-22T04:02:52.566Z,59.15
2018-04-22T04:03:55.598Z,59.09
2018-04-22T04:04:58.683Z,59.10
2018-04-22T04:06:01.889Z,59.13
2018-04-22T04:07:04.976Z,59.10
2018-04-22T04:08:08.079Z,59.09
2018-04-22T04:09:11.193Z,59.08
2018-04-22T04:10:14.232Z,59.07
2018-04-22T04:11:17.352Z,59.04
2018-04-22T04:12:20.494Z,59.02
2018-04-22T04:13:23.544Z,59.01
2018-04-22T04:14:26.613Z,59.00
2018-04-22T04:15:29.734Z,58.98
2018-04-22T04:16:32.782Z,58.97
2018-04-22T04:17:36.046Z,58.97
2018-04-22T04:18:59.744Z,58.94
2018-04-22T04:20:14.637Z,59.00
2018-04-22T04:21:29.351Z,59.01
2018-04-22T04:22:44.417Z,59.02
2018-04-22T04:25:54.158Z,59.18
2018-04-22T04:28:32.004Z,59.23
2018-04-22T04:29:35.275Z,59.23
2018-04-22T04:30:38.667Z,59.17
2018-04-22T04:31:41.790Z,59.16
2018-04-22T04:32:45.194Z,59.13
2018-04-22T04:33:48.342Z,59.12
2018-04-22T04:34:51.654Z,59.09
2018-04-22T04:35:54.730Z,59.08
2018-04-22T04:36:58.256Z,59.04
2018-04-22T04:38:01.572Z,59.02
2018-04-22T04:39:04.942Z,59.01
2018-04-22T04:40:08.023Z,58.99
2018-04-22T04:41:11.055Z,58.99
2018-04-22T04:42:14.163Z,58.96
2018-04-22T04:43:17.479Z,58.95
2018-04-22T04:44:20.684Z,58.95
2018-04-22T04:45:23.951Z,58.94
2018-04-22T04:46:27.027Z,58.92
2018-04-22T04:47:30.378Z,58.91
2018-04-22T04:48:33.697Z,58.86
2018-04-22T04:49:36.841Z,58.81
2018-04-22T04:50:40.258Z,58.77
2018-04-22T04:51:43.628Z,58.72
2018-04-22T04:52:46.758Z,58.68
2018-04-22T04:53:49.822Z,58.65
2018-04-22T04:54:52.942Z,58.62
2018-04-22T04:55:56.042Z,58.62
2018-04-22T04:56:59.132Z,58.59
2018-04-22T04:58:02.347Z,58.58
2018-04-22T04:59:05.437Z,58.56
2018-04-22T05:00:08.627Z,58.55
2018-04-22T05:01:11.790Z,58.51
2018-04-22T05:02:14.875Z,58.46
2018-04-22T05:03:17.995Z,58.41
2018-04-22T05:04:21.278Z,58.39
2018-04-22T05:05:24.363Z,58.36
2018-04-22T05:06:27.445Z,58.33
2018-04-22T05:07:30.587Z,58.28
2018-04-22T05:08:33.703Z,58.26
2018-04-22T05:09:36.853Z,58.26
2018-04-22T05:10:39.909Z,58.27
2018-04-22T05:11:43.039Z,58.27
2018-04-22T05:12:46.198Z,58.26
2018-04-22T05:13:49.272Z,58.30
2018-04-22T05:14:52.394Z,58.31
2018-04-22T05:15:55.515Z,58.34
2018-04-22T05:16:58.869Z,58.36
2018-04-22T05:18:02.080Z,58.38
2018-04-22T05:19:05.108Z,58.39
2018-04-22T05:20:08.369Z,58.37
2018-04-22T05:21:11.764Z,58.36
2018-04-22T05:22:14.786Z,58.38
2018-04-22T05:23:17.835Z,58.38
2018-04-22T05:24:20.949Z,58.38
2018-04-22T05:25:24.038Z,58.38
2018-04-22T05:26:27.195Z,58.36
2018-04-22T05:27:30.315Z,58.33
2018-04-22T05:28:33.472Z,58.32
2018-04-22T05:29:36.515Z,58.29
2018-04-22T05:30:39.694Z,58.24
2018-04-22T05:31:43.024Z,58.20
2018-04-22T05:32:46.179Z,58.17
2018-04-22T05:33:49.285Z,58.13
2018-04-22T05:34:52.323Z,58.08
2018-04-22T05:35:55.744Z,58.05
2018-04-22T05:36:58.850Z,57.97
2018-04-22T05:38:01.973Z,57.85
2018-04-22T05:39:05.771Z,57.66
2018-04-22T05:40:09.025Z,57.42
2018-04-22T05:41:12.097Z,57.13
2018-04-22T05:42:15.237Z,56.85
2018-04-22T05:43:18.471Z,56.56
2018-04-22T05:44:21.786Z,56.23
2018-04-22T05:45:24.837Z,55.92
2018-04-22T05:46:28.092Z,55.54
2018-04-22T05:47:31.257Z,55.24
2018-04-22T05:48:34.321Z,54.92
2018-04-22T05:49:37.453Z,54.64
2018-04-22T05:50:40.672Z,54.35
2018-04-22T05:51:43.815Z,54.01
2018-04-22T05:52:46.906Z,53.67
2018-04-22T05:53:50.059Z,53.34
2018-04-22T05:54:53.158Z,53.07
2018-04-22T05:55:56.501Z,52.77
2018-04-22T05:56:59.546Z,52.43
2018-04-22T05:58:02.826Z,52.11
2018-04-22T05:59:06.271Z,51.81
2018-04-22T06:00:09.376Z,51.47
2018-04-22T06:01:12.511Z,51.16
2018-04-22T06:02:15.875Z,50.85
2018-04-22T06:03:19.169Z,50.58
2018-04-22T06:05:31.879Z,50.01
2018-04-22T06:06:34.954Z,49.71
2018-04-22T06:07:38.234Z,49.41
2018-04-22T06:08:41.456Z,49.10
2018-04-22T06:09:44.531Z,48.79
2018-04-22T06:10:47.662Z,48.54
2018-04-22T06:11:50.784Z,48.27
2018-04-22T06:12:53.967Z,47.98
2018-04-22T06:13:57.017Z,47.78
2018-04-22T06:15:00.243Z,47.58
2018-04-22T06:16:03.311Z,47.39
2018-04-22T06:17:06.420Z,47.14
2018-04-22T06:18:09.495Z,46.88
2018-04-22T06:19:12.624Z,46.68
2018-04-22T06:20:15.815Z,46.48
2018-04-22T06:21:18.918Z,46.25
2018-04-22T06:22:21.995Z,46.06
2018-04-22T06:23:25.074Z,45.83
2018-04-22T06:24:28.139Z,45.60
2018-04-22T06:25:31.221Z,45.43
2018-04-22T06:26:34.300Z,45.23
2018-04-22T06:27:37.582Z,45.00
2018-04-22T06:28:40.635Z,44.83
2018-04-22T06:29:43.735Z,44.68
2018-04-22T06:30:46.855Z,44.46
2018-04-22T06:31:49.897Z,44.28
2018-04-22T06:32:52.968Z,44.07
2018-04-22T06:33:56.214Z,43.85
2018-04-22T06:34:59.564Z,43.69
2018-04-22T06:36:02.842Z,43.50
2018-04-22T06:37:05.914Z,43.29
2018-04-22T06:38:08.986Z,43.08
2018-04-22T06:39:12.095Z,42.87
2018-04-22T06:40:15.654Z,42.78
2018-04-22T06:41:18.806Z,42.65
2018-04-22T06:42:21.885Z,42.55
2018-04-22T06:43:25.066Z,42.49
2018-04-22T06:44:28.103Z,42.38
2018-04-22T06:45:31.233Z,42.37
2018-04-22T06:46:34.336Z,42.43
2018-04-22T06:47:37.369Z,42.54
2018-04-22T06:48:40.613Z,42.65
2018-04-22T06:49:43.709Z,42.88
2018-04-22T06:50:46.811Z,43.03
2018-04-22T06:51:49.907Z,43.24
2018-04-22T06:52:53.001Z,43.52
2018-04-22T06:53:56.068Z,43.79
2018-04-22T06:54:59.190Z,44.10
2018-04-22T06:56:02.259Z,44.37
2018-04-22T06:57:05.331Z,44.63
2018-04-22T06:58:08.406Z,44.78
2018-04-22T06:59:11.503Z,45.02
2018-04-22T07:00:14.878Z,45.26
2018-04-22T07:01:18.036Z,45.51
2018-04-22T07:02:21.325Z,45.69
2018-04-22T07:03:24.539Z,45.89
2018-04-22T07:04:27.687Z,46.04
2018-04-22T07:05:30.765Z,46.23
2018-04-22T07:06:33.948Z,46.35
2018-04-22T07:07:37.020Z,46.48
2018-04-22T07:08:40.070Z,46.65
2018-04-22T07:09:43.118Z,46.79
2018-04-22T07:10:46.188Z,46.99
2018-04-22T07:11:49.343Z,47.13
2018-04-22T07:12:52.526Z,47.30
2018-04-22T07:13:55.597Z,47.45
2018-04-22T07:14:58.638Z,47.60
2018-04-22T07:16:01.976Z,47.66
2018-04-22T07:17:05.140Z,47.69
2018-04-22T07:18:08.363Z,47.77
2018-04-22T07:19:11.446Z,47.84
2018-04-22T07:20:14.527Z,47.90
2018-04-22T07:21:17.598Z,47.98
2018-04-22T07:22:20.722Z,48.07
2018-04-22T07:23:23.871Z,48.16
2018-04-22T07:24:27.025Z,48.24
2018-04-22T07:25:30.220Z,48.29
2018-04-22T07:26:33.546Z,48.38
2018-04-22T07:27:36.651Z,48.41
2018-04-22T07:28:39.766Z,48.46
2018-04-22T07:29:42.895Z,48.46
2018-04-22T07:30:45.939Z,48.51
2018-04-22T07:31:49.144Z,48.60
2018-04-22T07:32:52.387Z,48.70
2018-04-22T07:33:55.479Z,48.82
2018-04-22T07:34:58.607Z,48.90
2018-04-22T07:36:01.728Z,48.95
2018-04-22T07:37:04.818Z,48.99
2018-04-22T07:38:08.032Z,49.07
2018-04-22T07:39:11.145Z,49.08
2018-04-22T07:40:14.247Z,49.11
2018-04-22T07:41:17.340Z,49.20
2018-04-22T07:42:20.469Z,49.23
2018-04-22T07:43:23.531Z,49.29
2018-04-22T07:44:26.614Z,49.34
2018-04-22T07:45:29.812Z,49.35
2018-04-22T07:46:32.942Z,49.39
2018-04-22T07:47:36.042Z,49.45
2018-04-22T07:48:39.244Z,49.52
2018-04-22T07:49:42.331Z,49.55
2018-04-22T07:50:45.435Z,49.56
2018-04-22T07:51:48.548Z,49.61
2018-04-22T07:52:51.599Z,49.67
2018-04-22T07:53:54.715Z,49.68
2018-04-22T07:54:57.942Z,49.65
2018-04-22T07:56:01.179Z,49.66
2018-04-22T07:57:04.290Z,49.59
2018-04-22T07:58:07.434Z,49.60
2018-04-22T07:59:10.548Z,49.58
2018-04-22T08:00:13.653Z,49.64
2018-04-22T08:01:16.845Z,49.63
2018-04-22T08:02:19.942Z,49.68
2018-04-22T08:03:23.016Z,49.73
2018-04-22T08:04:26.262Z,49.72
2018-04-22T08:05:29.504Z,49.72
2018-04-22T08:06:32.570Z,49.77
2018-04-22T08:07:35.676Z,49.71
2018-04-22T08:08:38.759Z,49.69
2018-04-22T08:09:41.811Z,49.66
2018-04-22T08:10:44.876Z,49.65
2018-04-22T08:11:48.000Z,49.65
2018-04-22T08:12:51.150Z,49.64
2018-04-22T08:13:54.754Z,49.62
2018-04-22T08:14:57.796Z,49.61
2018-04-22T08:16:00.866Z,49.58
2018-04-22T08:17:03.966Z,49.67
2018-04-22T08:18:07.082Z,49.76
2018-04-22T08:19:10.360Z,49.85
2018-04-22T08:20:13.530Z,49.86
2018-04-22T08:21:16.819Z,49.88
2018-04-22T08:22:19.930Z,49.91
2018-04-22T08:23:23.008Z,49.90
2018-04-22T08:24:26.093Z,49.89
2018-04-22T08:25:29.231Z,49.90
2018-04-22T08:26:32.486Z,49.91
2018-04-22T08:27:35.576Z,49.90
2018-04-22T08:28:38.645Z,49.90
2018-04-22T08:29:41.718Z,49.95
2018-04-22T08:30:44.918Z,50.04
2018-04-22T08:31:47.991Z,50.10
2018-04-22T08:32:51.460Z,50.08
2018-04-22T08:33:54.546Z,50.12
2018-04-22T08:34:57.866Z,50.16
2018-04-22T08:36:00.923Z,50.24
2018-04-22T08:37:04.062Z,50.28
2018-04-22T08:38:07.104Z,50.28
2018-04-22T08:39:10.191Z,50.33
2018-04-22T08:40:13.551Z,50.35
2018-04-22T08:41:16.602Z,50.35
2018-04-22T08:42:19.712Z,50.32
2018-04-22T08:43:22.849Z,50.28
2018-04-22T08:44:26.247Z,50.30
2018-04-22T08:45:29.406Z,50.37
2018-04-22T08:46:32.654Z,50.38
2018-04-22T08:47:35.743Z,50.29
2018-04-22T08:48:38.891Z,50.18
2018-04-22T08:49:42.064Z,50.15
2018-04-22T08:50:45.170Z,50.15
2018-04-22T08:51:48.257Z,50.04
2018-04-22T08:52:51.366Z,49.86
2018-04-22T08:53:54.663Z,49.76
2018-04-22T08:54:57.770Z,49.68
2018-04-22T08:56:00.840Z,49.48
2018-04-22T08:57:03.907Z,49.18
2018-04-22T08:58:06.991Z,48.98
2018-04-22T08:59:10.113Z,48.85
2018-04-22T09:00:13.291Z,48.79
2018-04-22T09:01:16.377Z,48.75
2018-04-22T09:02:19.487Z,48.66
2018-04-22T09:03:22.565Z,48.48
2018-04-22T09:04:25.635Z,48.43
2018-04-22T09:05:29.022Z,48.54
2018-04-22T09:06:32.324Z,48.60
2018-04-22T09:07:35.523Z,48.56
2018-04-22T09:08:38.646Z,48.38
2018-04-22T09:09:41.759Z,48.15
2018-04-22T09:10:44.849Z,48.07
2018-04-22T09:11:48.178Z,48.07
2018-04-22T09:12:51.402Z,48.09
2018-04-22T09:13:54.462Z,48.06
2018-04-22T09:14:57.645Z,48.04
2018-04-22T09:16:00.742Z,48.13
2018-04-22T09:17:03.798Z,48.25
2018-04-22T09:18:06.858Z,48.22
2018-04-22T09:19:09.986Z,48.25
2018-04-22T09:20:13.068Z,48.23
2018-04-22T09:21:16.131Z,48.38
2018-04-22T09:22:19.321Z,48.37
2018-04-22T09:23:22.414Z,48.38
2018-04-22T09:24:25.510Z,48.29
2018-04-22T09:25:28.680Z,48.24
2018-04-22T09:26:31.806Z,48.22
2018-04-22T09:27:34.947Z,48.19
2018-04-22T09:28:38.023Z,48.16
2018-04-22T09:29:41.124Z,48.21
2018-04-22T09:30:44.258Z,48.12
2018-04-22T09:31:47.338Z,47.90
2018-04-22T09:32:50.421Z,47.79
2018-04-22T09:33:53.486Z,47.71
2018-04-22T09:34:56.565Z,47.65
2018-04-22T09:36:00.655Z,47.65
2018-04-22T09:37:03.703Z,47.69
2018-04-22T09:38:06.759Z,47.72
2018-04-22T09:39:09.808Z,47.74
2018-04-22T09:40:12.917Z,47.80
2018-04-22T09:41:16.019Z,47.78
2018-04-22T09:42:19.130Z,47.77
2018-04-22T09:43:22.207Z,47.84
2018-04-22T09:44:25.306Z,47.88
2018-04-22T09:45:28.385Z,47.90
2018-04-22T09:46:31.534Z,47.87
2018-04-22T09:47:34.737Z,47.89
2018-04-22T09:48:37.860Z,48.01
2018-04-22T09:49:41.035Z,48.07
2018-04-22T09:50:44.248Z,48.10
2018-04-22T09:51:47.328Z,48.13
2018-04-22T09:52:50.419Z,48.15
2018-04-22T09:53:53.632Z,48.02
2018-04-22T09:54:56.678Z,47.85
2018-04-22T09:55:59.884Z,47.69
2018-04-22T09:57:02.981Z,47.54
2018-04-22T09:58:06.165Z,47.61
2018-04-22T09:59:09.215Z,47.69
2018-04-22T10:01:48.267Z,47.37
2018-04-22T10:02:51.318Z,47.12
2018-04-22T10:03:56.214Z,46.99
2018-04-22T10:05:04.875Z,46.84
2018-04-22T10:06:07.931Z,46.69
2018-04-22T10:07:11.060Z,46.47
2018-04-22T10:08:14.183Z,46.46
2018-04-22T10:09:17.295Z,46.41
2018-04-22T10:10:20.379Z,46.42
2018-04-22T10:11:23.491Z,46.36
2018-04-22T10:12:26.606Z,46.29
